Time;durP1;ratioP1;P1;durP2;ratioP2;P2;SDS_P1;SDS_P2;PMS_P1;PMS_P2;Temp;Humidity;BMP_temperature;BMP_pressure;BME280_temperature;BME280_humidity;BME280_pressure;Samples;Min_cycle;Max_cycle;Signal;HPM_P1;HPM_P2
2023/09/10 00:01:23;;;;;;;23.10;19.55;;;16.10;99.90;;;;;;5050304;28;20108;-79
2023/09/10 00:03:49;;;;;;;28.98;20.10;;;16.00;99.90;;;;;;5039966;28;20068;-74
2023/09/10 00:06:15;;;;;;;21.67;17.02;;;16.00;99.90;;;;;;5037112;28;20026;-73
2023/09/10 00:08:40;;;;;;;24.13;18.70;;;16.00;99.90;;;;;;5029831;28;20029;-79
2023/09/10 00:11:06;;;;;;;19.85;17.55;;;16.00;99.90;;;;;;5035216;28;20057;-74
2023/09/10 00:13:32;;;;;;;24.50;18.88;;;16.00;99.90;;;;;;5018951;28;20048;-79
2023/09/10 00:15:58;;;;;;;23.95;19.15;;;16.00;99.90;;;;;;5029981;28;20113;-80
2023/09/10 00:18:23;;;;;;;27.45;19.42;;;16.00;99.90;;;;;;5033083;28;20475;-79
2023/09/10 00:20:51;;;;;;;22.95;18.58;;;16.00;99.90;;;;;;5031352;28;20029;-74
2023/09/10 00:23:17;;;;;;;21.55;18.30;;;16.00;99.90;;;;;;5030194;28;20029;-73
2023/09/10 00:25:43;;;;;;;20.15;17.42;;;16.00;99.90;;;;;;5029634;28;20052;-74
2023/09/10 00:28:09;;;;;;;20.58;16.88;;;15.90;99.90;;;;;;5029283;28;20463;-79
2023/09/10 00:30:35;;;;;;;21.80;17.42;;;15.90;99.90;;;;;;5030633;28;20386;-79
2023/09/10 00:33:00;;;;;;;23.52;18.42;;;15.80;99.90;;;;;;5035800;28;20021;-74
2023/09/10 00:35:26;;;;;;;21.27;17.92;;;15.80;99.90;;;;;;5029665;28;20026;-74
2023/09/10 00:37:52;;;;;;;23.77;18.90;;;15.70;99.90;;;;;;5035750;28;20101;-74
2023/09/10 00:40:17;;;;;;;22.27;18.75;;;15.60;99.90;;;;;;5030915;28;20065;-73
2023/09/10 00:42:43;;;;;;;26.05;18.83;;;15.50;99.90;;;;;;5039540;28;20058;-73
2023/09/10 00:45:12;;;;;;;21.90;17.63;;;15.50;99.90;;;;;;5027231;28;20463;-74
2023/09/10 00:47:42;;;;;;;26.42;19.23;;;15.40;99.90;;;;;;5035855;28;20025;-73
2023/09/10 00:50:09;;;;;;;21.50;17.60;;;15.40;99.90;;;;;;5029407;28;20081;-73
2023/09/10 00:52:39;;;;;;;24.02;19.35;;;15.30;99.90;;;;;;5034212;28;20461;-74
2023/09/10 00:55:05;;;;;;;25.00;19.85;;;15.30;99.90;;;;;;5033611;28;20489;-74
2023/09/10 00:57:32;;;;;;;25.20;18.85;;;15.20;99.90;;;;;;5035327;28;20047;-74
2023/09/10 00:59:58;;;;;;;24.65;18.98;;;15.10;99.90;;;;;;5035025;28;20426;-73
2023/09/10 01:02:24;;;;;;;23.27;19.35;;;15.10;99.90;;;;;;5034456;28;20025;-74
2023/09/10 01:04:50;;;;;;;25.27;19.80;;;15.00;99.90;;;;;;5033520;28;20470;-73
2023/09/10 01:07:16;;;;;;;23.10;19.10;;;15.00;99.90;;;;;;5034641;28;20017;-73
2023/09/10 01:09:42;;;;;;;20.15;17.05;;;14.90;99.90;;;;;;5034861;28;20029;-80
2023/09/10 01:12:15;;;;;;;24.38;17.70;;;14.90;99.90;;;;;;5024214;28;20029;-79
2023/09/10 01:14:50;;;;;;;24.58;19.13;;;14.80;99.90;;;;;;5025368;28;20036;-79
2023/09/10 01:17:28;;;;;;;26.17;21.92;;;14.80;99.90;;;;;;5029393;28;20028;-79
2023/09/10 01:20:09;;;;;;;28.25;21.42;;;14.70;99.90;;;;;;5030191;28;20034;-79
2023/09/10 01:22:58;;;;;;;25.10;19.58;;;14.70;99.90;;;;;;5030176;28;20387;-79
2023/09/10 01:25:24;;;;;;;26.50;20.02;;;14.60;99.90;;;;;;5019284;28;20032;-79
2023/09/10 01:27:50;;;;;;;25.70;20.42;;;14.50;99.90;;;;;;5029818;28;20021;-79
2023/09/10 01:30:15;;;;;;;29.55;22.75;;;14.50;99.90;;;;;;5030205;28;20028;-74
2023/09/10 01:32:58;;;;;;;28.75;21.52;;;14.50;99.90;;;;;;5028566;28;20467;-78
2023/09/10 01:35:50;;;;;;;24.75;20.90;;;14.40;99.90;;;;;;5028734;28;20471;-79
2023/09/10 01:38:24;;;;;;;28.48;21.05;;;14.40;99.90;;;;;;5018167;28;20124;-73
2023/09/10 01:41:08;;;;;;;28.65;21.98;;;14.30;99.90;;;;;;5041731;28;20116;-74
2023/09/10 01:43:34;;;;;;;24.77;19.85;;;14.20;99.90;;;;;;5029837;28;20037;-73
2023/09/10 01:46:02;;;;;;;24.20;20.30;;;14.20;99.90;;;;;;5029559;28;20021;-73
2023/09/10 01:48:28;;;;;;;29.13;22.25;;;14.10;99.90;;;;;;5028365;28;20475;-75
2023/09/10 01:50:54;;;;;;;28.23;20.90;;;14.10;99.90;;;;;;5029827;28;20022;-73
2023/09/10 01:53:20;;;;;;;24.08;19.42;;;14.00;99.90;;;;;;5029599;28;20037;-74
2023/09/10 01:55:46;;;;;;;26.95;19.52;;;14.00;99.90;;;;;;5029656;28;20021;-73
2023/09/10 01:58:15;;;;;;;26.67;20.95;;;14.00;99.90;;;;;;5029351;28;20555;-74
2023/09/10 02:00:41;;;;;;;26.33;21.17;;;14.00;99.90;;;;;;5016120;28;20036;-75
2023/09/10 02:03:07;;;;;;;23.98;18.60;;;13.90;99.90;;;;;;5029451;28;20026;-73
2023/09/10 02:05:32;;;;;;;25.75;18.83;;;13.90;99.90;;;;;;5028433;28;20528;-73
2023/09/10 02:07:58;;;;;;;27.38;19.52;;;13.90;99.90;;;;;;5028758;28;20025;-73
2023/09/10 02:10:24;;;;;;;24.05;19.10;;;13.80;99.90;;;;;;5028354;28;20108;-74
2023/09/10 02:12:50;;;;;;;21.05;18.13;;;13.80;99.90;;;;;;5018011;28;20387;-74
2023/09/10 02:15:17;;;;;;;24.27;19.92;;;13.80;99.90;;;;;;5029417;28;20050;-74
2023/09/10 02:17:43;;;;;;;24.98;19.40;;;13.80;99.90;;;;;;5032428;28;20029;-77
2023/09/10 02:20:09;;;;;;;25.40;19.60;;;13.70;99.90;;;;;;5028263;28;20040;-74
2023/09/10 02:22:39;;;;;;;25.23;19.88;;;13.70;99.90;;;;;;5038927;28;20055;-73
2023/09/10 02:25:05;;;;;;;21.40;18.02;;;13.70;99.90;;;;;;5032794;28;20092;-79
2023/09/10 02:27:32;;;;;;;23.60;19.23;;;13.70;99.90;;;;;;5030603;28;20030;-74
2023/09/10 02:29:58;;;;;;;27.23;21.38;;;13.70;99.90;;;;;;5032706;28;20464;-78
2023/09/10 02:32:25;;;;;;;26.45;21.10;;;13.70;99.90;;;;;;5033074;28;20033;-78
2023/09/10 02:34:53;;;;;;;26.92;21.10;;;13.60;99.90;;;;;;5032682;28;20026;-79
2023/09/10 02:37:19;;;;;;;29.17;23.05;;;13.60;99.90;;;;;;5032790;28;20052;-74
2023/09/10 02:39:45;;;;;;;28.13;21.27;;;13.60;99.90;;;;;;5033044;28;20041;-79
2023/09/10 02:42:11;;;;;;;22.70;19.17;;;13.60;99.90;;;;;;5031084;28;20033;-79
2023/09/10 02:44:36;;;;;;;28.23;21.98;;;13.60;99.90;;;;;;5033368;28;20502;-73
2023/09/10 02:47:02;;;;;;;24.48;19.02;;;13.50;99.90;;;;;;5032580;28;20025;-73
2023/09/10 02:49:28;;;;;;;25.45;20.17;;;13.50;99.90;;;;;;5033227;28;20049;-79
2023/09/10 02:51:54;;;;;;;29.48;22.42;;;13.50;99.90;;;;;;5032401;28;20052;-78
2023/09/10 02:54:20;;;;;;;30.05;22.58;;;13.50;99.90;;;;;;5032341;28;20025;-73
2023/09/10 02:56:46;;;;;;;26.83;22.20;;;13.40;99.90;;;;;;5030862;28;20077;-78
2023/09/10 02:59:23;;;;;;;28.10;21.00;;;13.40;99.90;;;;;;5028552;28;20440;-79
2023/09/10 03:01:49;;;;;;;27.58;20.88;;;13.40;99.90;;;;;;5015301;28;20026;-79
2023/09/10 03:04:15;;;;;;;23.92;20.85;;;13.30;99.90;;;;;;5025536;28;20519;-73
2023/09/10 03:06:47;;;;;;;26.67;20.50;;;13.40;99.90;;;;;;5043496;28;20057;-78
2023/09/10 03:09:14;;;;;;;23.98;19.27;;;13.30;99.90;;;;;;5020087;28;20058;-78
2023/09/10 03:11:41;;;;;;;26.85;19.67;;;13.30;99.90;;;;;;5040679;28;20104;-78
2023/09/10 03:14:08;;;;;;;21.15;17.77;;;13.30;99.90;;;;;;5036157;28;20489;-73
2023/09/10 03:16:36;;;;;;;20.98;17.58;;;13.20;99.90;;;;;;5026748;28;20123;-77
2023/09/10 03:19:02;;;;;;;18.60;15.50;;;13.20;99.90;;;;;;5036045;28;20037;-74
2023/09/10 03:21:28;;;;;;;18.70;15.80;;;13.20;99.90;;;;;;5050526;28;20027;-78
2023/09/10 03:23:55;;;;;;;19.08;15.68;;;13.10;99.90;;;;;;5047837;28;20037;-73
2023/09/10 03:26:21;;;;;;;17.45;14.60;;;13.10;99.90;;;;;;5050246;28;20025;-74
2023/09/10 03:28:46;;;;;;;21.55;15.32;;;13.10;99.90;;;;;;5049071;28;20070;-78
2023/09/10 03:31:12;;;;;;;17.17;14.55;;;13.10;99.90;;;;;;5031887;28;20510;-73
2023/09/10 03:33:38;;;;;;;17.13;14.48;;;13.10;99.90;;;;;;5028998;28;20532;-73
2023/09/10 03:36:03;;;;;;;18.95;15.65;;;13.10;99.90;;;;;;5025478;28;20116;-77
2023/09/10 03:38:30;;;;;;;19.17;16.23;;;13.20;99.90;;;;;;5031687;28;20056;-78
2023/09/10 03:40:55;;;;;;;23.92;17.52;;;13.20;99.90;;;;;;5031884;28;20106;-78
2023/09/10 03:43:21;;;;;;;19.20;16.17;;;13.20;99.90;;;;;;5031364;28;20481;-73
2023/09/10 03:45:47;;;;;;;15.70;13.65;;;13.20;99.90;;;;;;5031916;28;20014;-78
2023/09/10 03:48:13;;;;;;;13.90;12.40;;;13.10;99.90;;;;;;5031697;28;20026;-73
2023/09/10 03:50:39;;;;;;;14.38;12.20;;;13.00;99.90;;;;;;5032237;28;20398;-74
2023/09/10 03:53:05;;;;;;;14.52;11.55;;;13.00;99.90;;;;;;5031460;28;20017;-74
2023/09/10 03:55:30;;;;;;;13.52;11.38;;;12.90;99.90;;;;;;5031545;28;20037;-74
2023/09/10 03:57:56;;;;;;;14.60;12.57;;;12.90;99.90;;;;;;5031131;28;20490;-78
2023/09/10 04:00:22;;;;;;;16.30;14.02;;;12.90;99.90;;;;;;5031336;28;20391;-77
2023/09/10 04:02:48;;;;;;;15.98;12.65;;;12.90;99.90;;;;;;5031249;28;20028;-73
2023/09/10 04:05:14;;;;;;;14.65;12.68;;;12.90;99.90;;;;;;5031351;28;20040;-73
2023/09/10 04:07:40;;;;;;;16.95;13.43;;;12.80;99.90;;;;;;5026534;28;20025;-78
2023/09/10 04:10:07;;;;;;;18.77;14.30;;;12.90;99.90;;;;;;5032804;28;20486;-73
2023/09/10 04:12:32;;;;;;;18.45;14.40;;;12.80;99.90;;;;;;5031976;28;20032;-78
2023/09/10 04:14:58;;;;;;;18.55;13.95;;;12.90;99.90;;;;;;5031301;28;20025;-78
2023/09/10 04:17:28;;;;;;;17.27;13.75;;;12.80;99.90;;;;;;5030907;28;20033;-78
2023/09/10 04:19:59;;;;;;;16.77;13.65;;;12.90;99.90;;;;;;5031173;28;20041;-73
2023/09/10 04:22:26;;;;;;;18.80;15.00;;;12.80;99.90;;;;;;5030674;28;20032;-73
2023/09/10 04:24:51;;;;;;;18.35;14.15;;;12.90;99.90;;;;;;5031176;28;20026;-78
2023/09/10 04:27:17;;;;;;;17.20;14.38;;;12.90;99.90;;;;;;5031205;28;20032;-78
2023/09/10 04:29:43;;;;;;;17.55;13.30;;;12.90;99.90;;;;;;5031049;28;20041;-79
2023/09/10 04:32:08;;;;;;;19.17;13.98;;;12.90;99.90;;;;;;5030822;28;20074;-79
2023/09/10 04:34:34;;;;;;;14.52;12.95;;;12.90;99.90;;;;;;5029739;28;20482;-73
2023/09/10 04:37:02;;;;;;;15.85;11.85;;;12.90;99.90;;;;;;5031444;28;20072;-73
2023/09/10 04:39:27;;;;;;;18.75;12.93;;;12.90;99.90;;;;;;5031580;28;20526;-73
2023/09/10 04:41:53;;;;;;;16.17;12.18;;;12.90;99.90;;;;;;5030305;28;20013;-74
2023/09/10 04:44:19;;;;;;;16.00;12.48;;;12.90;99.90;;;;;;5030212;28;20450;-73
2023/09/10 04:46:45;;;;;;;15.38;13.07;;;12.90;99.90;;;;;;5031435;28;20471;-77
2023/09/10 04:49:11;;;;;;;14.63;11.25;;;12.90;99.90;;;;;;5030943;28;20070;-78
2023/09/10 04:51:37;;;;;;;15.07;12.88;;;12.90;99.90;;;;;;5030551;28;20387;-78
2023/09/10 04:54:03;;;;;;;16.13;13.88;;;13.00;99.90;;;;;;5031375;28;20018;-77
2023/09/10 04:56:28;;;;;;;14.98;13.25;;;13.10;99.90;;;;;;5031479;28;20022;-73
2023/09/10 04:58:54;;;;;;;20.20;13.93;;;13.10;99.90;;;;;;5030525;28;20033;-78
2023/09/10 05:01:20;;;;;;;14.57;12.93;;;13.20;99.90;;;;;;5031489;28;20022;-78
2023/09/10 05:03:45;;;;;;;14.70;12.82;;;13.20;99.90;;;;;;5029388;28;20483;-73
2023/09/10 05:06:13;;;;;;;14.38;12.32;;;13.30;99.90;;;;;;5031229;28;20026;-79
2023/09/10 05:08:39;;;;;;;12.07;10.88;;;13.30;99.90;;;;;;5029886;28;20057;-74
2023/09/10 05:11:04;;;;;;;12.05;10.82;;;13.30;99.90;;;;;;5043330;28;20041;-74
2023/09/10 05:13:30;;;;;;;12.38;11.07;;;13.40;99.90;;;;;;5030127;28;20776;-74
2023/09/10 05:15:57;;;;;;;12.85;10.23;;;13.50;99.90;;;;;;5034944;28;20474;-78
2023/09/10 05:18:26;;;;;;;12.13;10.93;;;13.60;99.90;;;;;;5036276;28;20021;-79
2023/09/10 05:20:53;;;;;;;16.95;12.35;;;13.60;99.90;;;;;;5028322;28;20091;-79
2023/09/10 05:23:23;;;;;;;13.82;11.55;;;13.80;99.90;;;;;;5028778;28;20491;-74
2023/09/10 05:25:49;;;;;;;16.95;15.15;;;13.90;99.90;;;;;;5028495;28;20022;-79
2023/09/10 05:28:15;;;;;;;13.55;12.13;;;14.10;99.90;;;;;;5032504;28;20033;-80
2023/09/10 05:30:41;;;;;;;16.85;13.48;;;14.20;99.90;;;;;;5034602;28;20442;-80
2023/09/10 05:33:07;;;;;;;20.85;17.55;;;14.40;99.90;;;;;;5032827;28;20058;-74
2023/09/10 05:35:32;;;;;;;26.60;20.77;;;14.60;99.90;;;;;;5034550;28;20033;-74
2023/09/10 05:37:58;;;;;;;24.65;20.38;;;14.80;99.90;;;;;;5048148;28;20041;-74
2023/09/10 05:40:25;;;;;;;24.58;21.17;;;15.00;99.90;;;;;;5046006;28;20032;-77
2023/09/10 05:42:51;;;;;;;24.63;21.00;;;15.20;99.90;;;;;;5035980;28;20494;-79
2023/09/10 05:45:16;;;;;;;26.25;21.65;;;15.40;99.90;;;;;;5030272;28;20031;-79
2023/09/10 05:47:42;;;;;;;23.33;19.20;;;15.60;99.90;;;;;;5028351;28;20022;-74
2023/09/10 05:50:08;;;;;;;31.30;19.95;;;15.80;99.90;;;;;;5039553;28;20048;-79
2023/09/10 05:52:34;;;;;;;22.27;19.00;;;16.00;99.90;;;;;;5029776;28;20025;-79
2023/09/10 05:54:59;;;;;;;22.67;17.52;;;16.20;99.90;;;;;;5033566;28;20022;-79
2023/09/10 05:57:25;;;;;;;20.20;16.70;;;16.40;99.90;;;;;;5029119;28;20026;-79
2023/09/10 05:59:50;;;;;;;23.15;18.17;;;16.60;99.90;;;;;;5036147;28;20038;-79
2023/09/10 06:02:16;;;;;;;22.23;17.38;;;16.70;99.90;;;;;;5040057;28;20471;-80
2023/09/10 06:04:42;;;;;;;21.58;17.77;;;16.90;99.90;;;;;;5032584;28;20394;-79
2023/09/10 06:07:07;;;;;;;21.63;17.38;;;17.10;99.90;;;;;;5035825;28;20391;-79
2023/09/10 06:09:33;;;;;;;22.83;18.30;;;17.30;99.90;;;;;;5027724;28;20041;-74
2023/09/10 06:12:02;;;;;;;20.98;17.55;;;17.50;99.90;;;;;;5025119;28;20037;-74
2023/09/10 06:14:30;;;;;;;24.80;17.65;;;17.60;99.90;;;;;;5025071;28;20025;-80
2023/09/10 06:16:56;;;;;;;20.05;16.25;;;17.80;99.90;;;;;;5023961;28;20104;-80
2023/09/10 06:19:21;;;;;;;23.38;16.70;;;18.00;99.90;;;;;;5037416;28;20492;-80
2023/09/10 06:21:47;;;;;;;19.00;16.77;;;18.20;99.90;;;;;;5026953;28;20049;-80
2023/09/10 06:24:13;;;;;;;18.52;15.93;;;18.40;99.90;;;;;;5021917;28;20034;-81
2023/09/10 06:26:38;;;;;;;21.70;16.17;;;18.60;99.90;;;;;;5023275;28;20026;-80
2023/09/10 06:29:05;;;;;;;21.92;15.23;;;18.70;99.90;;;;;;5018465;28;20079;-79
2023/09/10 06:31:30;;;;;;;19.42;15.50;;;18.90;99.90;;;;;;5028127;28;20506;-77
2023/09/10 06:33:56;;;;;;;19.75;14.23;;;19.10;99.90;;;;;;5031613;28;20060;-72
2023/09/10 06:36:23;;;;;;;18.25;14.38;;;19.30;99.90;;;;;;5029817;28;20076;-78
2023/09/10 06:38:48;;;;;;;17.38;15.45;;;19.40;99.90;;;;;;5030303;28;20026;-73
2023/09/10 06:41:15;;;;;;;17.55;14.50;;;19.60;99.90;;;;;;5029419;28;20014;-73
2023/09/10 06:43:41;;;;;;;18.23;13.57;;;19.70;99.90;;;;;;5026109;28;20049;-73
2023/09/10 06:46:07;;;;;;;17.48;13.48;;;19.90;99.90;;;;;;5034252;28;20018;-73
2023/09/10 06:48:32;;;;;;;15.35;13.52;;;20.10;99.90;;;;;;5027312;28;20070;-72
2023/09/10 06:51:00;;;;;;;18.95;14.70;;;20.30;99.90;;;;;;5018763;28;20411;-72
2023/09/10 06:53:27;;;;;;;16.95;15.10;;;20.40;99.90;;;;;;5025447;28;20018;-78
2023/09/10 06:55:54;;;;;;;21.83;14.32;;;20.60;99.90;;;;;;5027667;28;20582;-79
2023/09/10 06:58:19;;;;;;;17.10;14.48;;;20.70;99.90;;;;;;5029421;28;20100;-79
2023/09/10 07:00:45;;;;;;;17.30;13.35;;;20.90;99.90;;;;;;5038409;28;20550;-79
2023/09/10 07:03:13;;;;;;;15.40;13.68;;;21.10;99.90;;;;;;5032420;28;20383;-79
2023/09/10 07:05:40;;;;;;;14.65;13.13;;;21.10;99.90;;;;;;5039405;28;20436;-79
2023/09/10 07:08:06;;;;;;;16.10;13.52;;;21.30;99.90;;;;;;5024226;28;20037;-79
2023/09/10 07:10:33;;;;;;;15.98;13.75;;;21.40;99.90;;;;;;5025307;28;20163;-72
2023/09/10 07:12:59;;;;;;;16.30;13.80;;;21.40;99.90;;;;;;5032157;28;20017;-73
2023/09/10 07:15:25;;;;;;;14.55;12.23;;;21.50;99.90;;;;;;5031062;28;20057;-79
2023/09/10 07:17:50;;;;;;;14.98;12.45;;;21.60;99.90;;;;;;5037403;28;20490;-79
2023/09/10 07:20:16;;;;;;;18.40;13.07;;;21.70;99.90;;;;;;5039431;28;20412;-79
2023/09/10 07:22:42;;;;;;;15.85;13.05;;;21.70;99.90;;;;;;5033904;28;20036;-79
2023/09/10 07:25:08;;;;;;;14.32;12.93;;;21.80;99.90;;;;;;5036738;28;20020;-79
2023/09/10 07:27:34;;;;;;;16.27;13.35;;;21.80;99.90;;;;;;5035370;28;20041;-80
2023/09/10 07:29:59;;;;;;;13.75;12.23;;;22.00;99.90;;;;;;5028461;28;20021;-79
2023/09/10 07:32:25;;;;;;;14.05;12.55;;;22.10;99.90;;;;;;5041450;28;20055;-79
2023/09/10 07:34:51;;;;;;;15.68;13.05;;;22.10;99.90;;;;;;5039121;28;20021;-72
2023/09/10 07:37:16;;;;;;;13.80;12.40;;;22.20;99.90;;;;;;5030923;28;20037;-80
2023/09/10 07:39:43;;;;;;;14.43;11.65;;;22.40;99.90;;;;;;5029612;28;20044;-72
2023/09/10 07:42:08;;;;;;;13.90;12.05;;;22.50;99.90;;;;;;5037653;28;20025;-72
2023/09/10 07:44:34;;;;;;;14.45;11.90;;;22.60;99.90;;;;;;5035841;28;20036;-73
2023/09/10 07:47:00;;;;;;;14.45;13.00;;;22.80;99.90;;;;;;5028632;28;20094;-79
2023/09/10 07:49:26;;;;;;;14.63;13.02;;;22.80;99.90;;;;;;5031323;28;20105;-79
2023/09/10 07:51:51;;;;;;;13.95;12.50;;;22.90;99.90;;;;;;5040523;28;20402;-79
2023/09/10 07:54:17;;;;;;;12.85;11.55;;;23.00;99.90;;;;;;5031200;28;20070;-80
2023/09/10 07:56:43;;;;;;;14.07;11.68;;;23.00;96.30;;;;;;5047912;28;20021;-79
2023/09/10 07:59:11;;;;;;;12.38;11.13;;;23.20;98.90;;;;;;5032325;28;20038;-73
2023/09/10 08:01:40;;;;;;;13.25;11.98;;;23.30;97.20;;;;;;5038966;28;20051;-73
2023/09/10 08:04:06;;;;;;;14.98;12.43;;;23.40;97.60;;;;;;5036951;28;20052;-80
2023/09/10 08:06:32;;;;;;;11.95;10.75;;;23.50;96.60;;;;;;5033571;28;20564;-72
2023/09/10 08:08:58;;;;;;;12.07;10.50;;;23.70;95.70;;;;;;5016456;28;20118;-72
2023/09/10 08:11:23;;;;;;;11.80;10.60;;;23.70;92.60;;;;;;5031129;28;20030;-73
2023/09/10 08:13:50;;;;;;;17.63;12.10;;;23.90;91.70;;;;;;5036433;28;20034;-73
2023/09/10 08:16:17;;;;;;;12.48;11.18;;;24.00;89.30;;;;;;5042423;28;20025;-73
2023/09/10 08:18:44;;;;;;;12.30;11.10;;;24.00;86.70;;;;;;5029431;28;20478;-73
2023/09/10 08:21:10;;;;;;;14.60;11.30;;;24.10;84.90;;;;;;5030719;28;20021;-75
2023/09/10 08:23:36;;;;;;;11.85;10.40;;;24.20;81.70;;;;;;5032707;28;20382;-73
2023/09/10 08:26:02;;;;;;;12.23;10.90;;;24.30;81.90;;;;;;5038614;28;20107;-73
2023/09/10 08:28:28;;;;;;;12.32;10.98;;;24.20;79.60;;;;;;5043677;28;20013;-74
2023/09/10 08:30:54;;;;;;;14.43;11.73;;;24.30;81.50;;;;;;5045578;28;20041;-79
2023/09/10 08:33:21;;;;;;;14.70;11.40;;;24.50;80.30;;;;;;5031015;28;20114;-79
2023/09/10 08:35:49;;;;;;;13.73;11.57;;;24.60;80.30;;;;;;5039847;28;20049;-90
2023/09/10 08:38:15;;;;;;;12.40;11.20;;;24.60;79.40;;;;;;5048020;28;20120;-74
2023/09/10 08:41:12;;;;;;;13.15;11.40;;;24.70;80.50;;;;;;5048093;28;20086;-74
2023/09/10 08:43:56;;;;;;;13.73;10.98;;;24.80;78.10;;;;;;5018803;28;20031;-73
2023/09/10 08:46:29;;;;;;;12.68;10.82;;;25.00;79.10;;;;;;5037727;28;20068;-80
2023/09/10 08:48:56;;;;;;;14.32;11.65;;;25.10;78.10;;;;;;5035149;28;20013;-81
2023/09/10 08:51:23;;;;;;;14.75;11.45;;;25.30;77.20;;;;;;5030532;28;20036;-78
2023/09/10 08:53:50;;;;;;;15.13;11.90;;;25.30;75.70;;;;;;5030553;28;20025;-78
2023/09/10 08:56:16;;;;;;;12.38;11.07;;;25.30;74.20;;;;;;5030492;28;20021;-74
2023/09/10 08:58:43;;;;;;;12.63;11.35;;;25.40;74.80;;;;;;5024715;28;20026;-78
2023/09/10 09:01:10;;;;;;;12.45;11.25;;;25.50;73.70;;;;;;5031121;28;20147;-75
2023/09/10 09:03:36;;;;;;;12.85;11.20;;;25.50;73.70;;;;;;5034396;28;20026;-74
2023/09/10 09:06:05;;;;;;;12.45;11.20;;;25.50;72.10;;;;;;5017643;28;20016;-74
2023/09/10 09:08:35;;;;;;;13.88;12.27;;;25.60;72.70;;;;;;5011748;28;20022;-74
2023/09/10 09:11:04;;;;;;;14.70;11.82;;;25.60;72.40;;;;;;5025542;28;20018;-74
2023/09/10 09:13:35;;;;;;;12.70;11.27;;;25.70;73.50;;;;;;5016389;28;20018;-74
2023/09/10 09:16:03;;;;;;;14.45;12.75;;;25.80;71.20;;;;;;5014183;28;20014;-75
2023/09/10 09:18:29;;;;;;;12.13;10.93;;;25.90;72.70;;;;;;5022159;28;20037;-74
2023/09/10 09:21:01;;;;;;;14.30;12.65;;;26.00;72.20;;;;;;5015263;28;20502;-73
2023/09/10 09:23:32;;;;;;;12.32;10.80;;;25.80;68.70;;;;;;5018451;28;20535;-74
2023/09/10 09:25:58;;;;;;;12.38;10.43;;;25.90;68.50;;;;;;5020163;28;20514;-74
2023/09/10 09:28:27;;;;;;;11.27;10.18;;;26.10;68.30;;;;;;5018145;28;20022;-74
2023/09/10 09:30:53;;;;;;;11.35;9.15;;;26.20;68.30;;;;;;5023137;28;20025;-74
2023/09/10 09:33:19;;;;;;;10.38;9.25;;;26.20;68.10;;;;;;5018242;28;20026;-74
2023/09/10 09:35:46;;;;;;;10.05;9.05;;;26.40;67.70;;;;;;5017462;28;20037;-74
2023/09/10 09:38:15;;;;;;;10.90;9.80;;;26.50;66.50;;;;;;5015171;28;20098;-74
2023/09/10 09:40:43;;;;;;;9.88;8.98;;;26.40;65.20;;;;;;5019011;28;20034;-74
2023/09/10 09:43:11;;;;;;;10.38;9.38;;;26.50;65.10;;;;;;5015567;28;20044;-74
2023/09/10 09:45:38;;;;;;;10.30;8.50;;;26.40;63.60;;;;;;5023874;28;20026;-73
2023/09/10 09:48:04;;;;;;;9.95;8.10;;;26.50;62.00;;;;;;5028438;28;20111;-74
2023/09/10 09:50:30;;;;;;;12.55;8.10;;;26.50;60.00;;;;;;5022793;28;20029;-73
2023/09/10 09:52:58;;;;;;;7.75;6.95;;;26.60;61.90;;;;;;5028871;28;20022;-73
2023/09/10 09:55:26;;;;;;;8.48;7.57;;;26.60;58.80;;;;;;5037093;28;20069;-74
2023/09/10 09:57:51;;;;;;;10.50;7.85;;;26.80;58.80;;;;;;5033993;28;20025;-74
2023/09/10 10:00:17;;;;;;;8.25;6.60;;;26.80;57.60;;;;;;5046280;28;20409;-74
2023/09/10 10:02:44;;;;;;;8.95;7.53;;;26.80;56.50;;;;;;5041771;28;20030;-74
2023/09/10 10:05:11;;;;;;;8.02;6.68;;;26.90;57.70;;;;;;5038028;28;20117;-74
2023/09/10 10:07:37;;;;;;;7.05;6.13;;;26.80;57.10;;;;;;5032352;28;20030;-74
2023/09/10 10:10:07;;;;;;;6.72;5.85;;;26.90;55.90;;;;;;5010739;28;20082;-74
2023/09/10 10:12:34;;;;;;;8.63;6.60;;;26.90;54.40;;;;;;5042702;28;20076;-74
2023/09/10 10:15:00;;;;;;;9.60;7.72;;;26.90;56.20;;;;;;5028939;28;20038;-74
2023/09/10 10:17:26;;;;;;;6.57;5.97;;;27.00;58.30;;;;;;5039750;28;20017;-74
2023/09/10 10:19:52;;;;;;;6.93;6.07;;;27.10;57.00;;;;;;5021557;28;20041;-75
2023/09/10 10:22:19;;;;;;;7.00;6.35;;;26.90;55.00;;;;;;5039725;28;20014;-74
2023/09/10 10:24:45;;;;;;;7.47;5.80;;;26.80;55.00;;;;;;5029918;28;20478;-74
2023/09/10 10:27:13;;;;;;;7.80;7.05;;;26.80;54.80;;;;;;5028334;28;20028;-73
2023/09/10 10:29:39;;;;;;;9.23;6.45;;;26.90;56.70;;;;;;5023811;28;20417;-74
2023/09/10 10:32:13;;;;;;;7.28;6.53;;;27.00;57.60;;;;;;5029971;28;20016;-74
2023/09/10 10:34:47;;;;;;;6.97;6.25;;;27.20;57.90;;;;;;5028551;28;20041;-75
2023/09/10 10:37:35;;;;;;;7.18;6.53;;;27.30;55.30;;;;;;5036104;28;20397;-74
2023/09/10 10:40:01;;;;;;;6.68;6.05;;;27.30;55.10;;;;;;5037057;28;20037;-74
2023/09/10 10:42:38;;;;;;;5.72;5.10;;;27.40;55.10;;;;;;5036611;28;20028;-75
2023/09/10 10:45:09;;;;;;;9.35;6.28;;;27.30;51.80;;;;;;5028369;28;20478;-76
2023/09/10 10:47:40;;;;;;;8.10;6.13;;;27.20;51.80;;;;;;5030969;28;20032;-75
2023/09/10 10:50:09;;;;;;;8.73;6.68;;;27.40;53.70;;;;;;5028126;28;20033;-74
2023/09/10 10:52:45;;;;;;;10.15;6.60;;;27.30;55.30;;;;;;5031552;28;20393;-75
2023/09/10 10:55:12;;;;;;;6.63;5.90;;;27.40;55.80;;;;;;5021856;28;20028;-77
2023/09/10 10:57:38;;;;;;;6.88;6.25;;;27.50;55.20;;;;;;5024944;28;20501;-77
2023/09/10 11:00:08;;;;;;;9.93;6.68;;;27.60;54.80;;;;;;5018500;28;20046;-77
2023/09/10 11:02:34;;;;;;;7.07;6.38;;;27.60;54.70;;;;;;5016163;28;20083;-76
2023/09/10 11:05:02;;;;;;;6.70;6.07;;;27.70;54.20;;;;;;5026517;28;20029;-77
2023/09/10 11:07:29;;;;;;;7.28;6.00;;;27.80;53.60;;;;;;5020989;28;20026;-76
2023/09/10 11:09:59;;;;;;;8.70;6.57;;;27.70;53.80;;;;;;5017843;28;20083;-76
2023/09/10 11:12:25;;;;;;;6.53;5.85;;;27.70;52.20;;;;;;5024798;28;20542;-76
2023/09/10 11:15:00;;;;;;;7.75;5.78;;;27.80;52.90;;;;;;5018172;28;20101;-76
2023/09/10 11:17:33;;;;;;;7.55;6.32;;;27.80;51.30;;;;;;5021639;28;20573;-76
2023/09/10 11:20:00;;;;;;;7.57;6.78;;;27.80;52.70;;;;;;5016220;28;20049;-76
2023/09/10 11:22:49;;;;;;;7.63;6.65;;;27.80;53.00;;;;;;5020137;28;20054;-77
2023/09/10 11:25:14;;;;;;;9.55;8.55;;;27.80;52.80;;;;;;5017547;28;20025;-77
2023/09/10 11:27:40;;;;;;;6.65;5.75;;;27.80;52.70;;;;;;5040048;28;20021;-76
2023/09/10 11:30:09;;;;;;;6.63;6.00;;;27.90;51.90;;;;;;5034272;28;20113;-77
2023/09/10 11:32:34;;;;;;;7.72;6.05;;;28.00;52.20;;;;;;5034039;28;20138;-75
2023/09/10 11:35:18;;;;;;;6.57;5.95;;;28.10;53.20;;;;;;5040153;28;20112;-77
2023/09/10 11:37:49;;;;;;;6.93;6.22;;;28.00;51.60;;;;;;5023008;28;20665;-76
2023/09/10 11:40:16;;;;;;;9.38;6.18;;;28.10;51.30;;;;;;5017909;28;20030;-76
2023/09/10 11:42:46;;;;;;;6.40;5.80;;;28.10;52.20;;;;;;5028896;28;20134;-76
2023/09/10 11:45:12;;;;;;;6.40;5.82;;;28.10;51.60;;;;;;5028330;28;20074;-76
2023/09/10 11:47:46;;;;;;;6.30;5.72;;;28.20;51.90;;;;;;5033631;28;20100;-77
2023/09/10 11:50:14;;;;;;;6.90;5.85;;;28.20;51.10;;;;;;5021803;28;20022;-75
2023/09/10 11:52:40;;;;;;;6.75;6.15;;;28.30;51.80;;;;;;5018395;28;20018;-73
2023/09/10 11:55:09;;;;;;;6.70;6.10;;;28.20;51.20;;;;;;5022930;28;20029;-75
2023/09/10 11:57:35;;;;;;;7.40;5.35;;;28.10;50.70;;;;;;5023076;28;20032;-75
2023/09/10 12:00:02;;;;;;;8.75;5.90;;;28.00;49.60;;;;;;5017463;28;20034;-75
2023/09/10 12:02:28;;;;;;;6.35;5.70;;;28.10;50.00;;;;;;5020934;28;20025;-76
2023/09/10 12:04:54;;;;;;;6.40;5.53;;;28.00;50.80;;;;;;5020451;28;20032;-76
2023/09/10 12:07:19;;;;;;;8.40;6.18;;;28.10;51.40;;;;;;5015103;28;20359;-75
2023/09/10 12:09:45;;;;;;;7.32;5.15;;;28.20;50.90;;;;;;5014555;28;20037;-77
2023/09/10 12:12:17;;;;;;;6.15;5.22;;;28.20;51.50;;;;;;5019007;28;20018;-77
2023/09/10 12:14:43;;;;;;;6.68;6.00;;;28.20;51.00;;;;;;5015123;28;20026;-76
2023/09/10 12:17:10;;;;;;;6.93;6.22;;;28.20;50.40;;;;;;5019271;28;20509;-76
2023/09/10 12:19:37;;;;;;;7.95;5.82;;;28.20;50.10;;;;;;5020834;28;20368;-75
2023/09/10 12:22:04;;;;;;;7.63;5.32;;;28.20;49.30;;;;;;5029737;28;20087;-77
2023/09/10 12:24:30;;;;;;;6.55;5.95;;;28.30;49.80;;;;;;5031869;28;20049;-77
2023/09/10 12:26:56;;;;;;;7.10;6.50;;;28.40;50.40;;;;;;5030016;28;20060;-77
2023/09/10 12:29:22;;;;;;;6.55;6.05;;;28.30;49.20;;;;;;5030299;28;20025;-75
2023/09/10 12:31:52;;;;;;;8.02;6.13;;;28.30;50.40;;;;;;5031916;28;20077;-75